sensor_id;sensor_type;location;lat;lon;timestamp;P1;durP1;ratioP1;P2;durP2;ratioP2
8179;SDS011;4131;48.810;11.892;2022-11-04T00:02:12;1.85;;;1.20;;
8179;SDS011;4131;48.810;11.892;2022-11-04T00:04:41;0.73;;;0.60;;
8179;SDS011;4131;48.810;11.892;2022-11-04T00:07:10;1.30;;;1.05;;
8179;SDS011;4131;48.810;11.892;2022-11-04T00:09:52;1.70;;;1.33;;
8179;SDS011;4131;48.810;11.892;2022-11-04T00:12:22;4.53;;;1.48;;
8179;SDS011;4131;48.810;11.892;2022-11-04T00:14:51;0.88;;;0.80;;
8179;SDS011;4131;48.810;11.892;2022-11-04T00:17:40;1.67;;;1.58;;
8179;SDS011;4131;48.810;11.892;2022-11-04T00:20:09;3.38;;;1.73;;
8179;SDS011;4131;48.810;11.892;2022-11-04T00:22:51;1.42;;;1.33;;
8179;SDS011;4131;48.810;11.892;2022-11-04T00:25:39;1.33;;;0.90;;
8179;SDS011;4131;48.810;11.892;2022-11-04T00:28:24;4.50;;;2.38;;
8179;SDS011;4131;48.810;11.892;2022-11-04T00:31:10;1.55;;;1.30;;
8179;SDS011;4131;48.810;11.892;2022-11-04T00:33:56;1.55;;;0.80;;
8179;SDS011;4131;48.810;11.892;2022-11-04T00:36:26;3.08;;;1.83;;
8179;SDS011;4131;48.810;11.892;2022-11-04T00:38:55;4.25;;;2.47;;
8179;SDS011;4131;48.810;11.892;2022-11-04T00:41:23;4.05;;;2.75;;
8179;SDS011;4131;48.810;11.892;2022-11-04T00:43:55;1.95;;;1.80;;
8179;SDS011;4131;48.810;11.892;2022-11-04T00:46:28;3.10;;;2.45;;
8179;SDS011;4131;48.810;11.892;2022-11-04T00:48:57;3.15;;;2.85;;
8179;SDS011;4131;48.810;11.892;2022-11-04T00:51:28;7.28;;;1.38;;
8179;SDS011;4131;48.810;11.892;2022-11-04T00:53:56;2.30;;;2.15;;
8179;SDS011;4131;48.810;11.892;2022-11-04T00:56:24;0.70;;;0.70;;
8179;SDS011;4131;48.810;11.892;2022-11-04T00:58:52;2.92;;;2.60;;
8179;SDS011;4131;48.810;11.892;2022-11-04T01:01:20;5.60;;;2.17;;
8179;SDS011;4131;48.810;11.892;2022-11-04T01:03:49;0.90;;;0.65;;
8179;SDS011;4131;48.810;11.892;2022-11-04T01:06:19;3.00;;;2.80;;
8179;SDS011;4131;48.810;11.892;2022-11-04T01:08:54;1.85;;;1.67;;
8179;SDS011;4131;48.810;11.892;2022-11-04T01:11:24;2.33;;;1.38;;
8179;SDS011;4131;48.810;11.892;2022-11-04T01:13:53;4.30;;;2.45;;
8179;SDS011;4131;48.810;11.892;2022-11-04T01:16:22;1.15;;;1.13;;
8179;SDS011;4131;48.810;11.892;2022-11-04T01:18:51;5.35;;;2.17;;
8179;SDS011;4131;48.810;11.892;2022-11-04T01:21:19;2.45;;;1.75;;
8179;SDS011;4131;48.810;11.892;2022-11-04T01:23:47;4.53;;;2.50;;
8179;SDS011;4131;48.810;11.892;2022-11-04T01:26:17;3.55;;;2.05;;
8179;SDS011;4131;48.810;11.892;2022-11-04T01:28:49;3.67;;;1.15;;
8179;SDS011;4131;48.810;11.892;2022-11-04T01:31:21;6.70;;;2.78;;
8179;SDS011;4131;48.810;11.892;2022-11-04T01:33:51;4.85;;;2.10;;
8179;SDS011;4131;48.810;11.892;2022-11-04T01:36:21;1.88;;;1.65;;
8179;SDS011;4131;48.810;11.892;2022-11-04T01:38:49;2.97;;;2.05;;
8179;SDS011;4131;48.810;11.892;2022-11-04T01:41:20;4.00;;;1.25;;
8179;SDS011;4131;48.810;11.892;2022-11-04T01:43:50;0.85;;;0.85;;
8179;SDS011;4131;48.810;11.892;2022-11-04T01:46:21;2.03;;;1.88;;
8179;SDS011;4131;48.810;11.892;2022-11-04T01:48:57;0.65;;;0.65;;
8179;SDS011;4131;48.810;11.892;2022-11-04T01:51:32;4.70;;;2.25;;
8179;SDS011;4131;48.810;11.892;2022-11-04T01:54:04;0.98;;;0.93;;
8179;SDS011;4131;48.810;11.892;2022-11-04T01:56:35;1.60;;;1.50;;
8179;SDS011;4131;48.810;11.892;2022-11-04T01:59:06;3.05;;;1.92;;
8179;SDS011;4131;48.810;11.892;2022-11-04T02:01:37;1.40;;;1.30;;
8179;SDS011;4131;48.810;11.892;2022-11-04T02:04:05;6.85;;;1.13;;
8179;SDS011;4131;48.810;11.892;2022-11-04T02:06:51;2.47;;;1.38;;
8179;SDS011;4131;48.810;11.892;2022-11-04T02:09:21;4.30;;;1.67;;
8179;SDS011;4131;48.810;11.892;2022-11-04T02:11:52;4.07;;;1.90;;
8179;SDS011;4131;48.810;11.892;2022-11-04T02:14:37;1.80;;;1.15;;
8179;SDS011;4131;48.810;11.892;2022-11-04T02:17:11;0.40;;;0.40;;
8179;SDS011;4131;48.810;11.892;2022-11-04T02:20:09;2.88;;;1.63;;
8179;SDS011;4131;48.810;11.892;2022-11-04T02:22:58;2.65;;;1.30;;
8179;SDS011;4131;48.810;11.892;2022-11-04T02:28:49;0.80;;;0.80;;
8179;SDS011;4131;48.810;11.892;2022-11-04T02:31:43;1.58;;;1.30;;
8179;SDS011;4131;48.810;11.892;2022-11-04T02:34:18;2.47;;;2.17;;
8179;SDS011;4131;48.810;11.892;2022-11-04T02:36:54;1.27;;;1.15;;
8179;SDS011;4131;48.810;11.892;2022-11-04T02:39:34;4.07;;;2.47;;
8179;SDS011;4131;48.810;11.892;2022-11-04T02:42:09;1.17;;;1.15;;
8179;SDS011;4131;48.810;11.892;2022-11-04T02:44:42;0.85;;;0.73;;
8179;SDS011;4131;48.810;11.892;2022-11-04T02:47:16;1.10;;;0.70;;
8179;SDS011;4131;48.810;11.892;2022-11-04T02:49:49;2.92;;;1.75;;
8179;SDS011;4131;48.810;11.892;2022-11-04T02:52:24;1.75;;;1.60;;
8179;SDS011;4131;48.810;11.892;2022-11-04T02:54:57;1.85;;;0.32;;
8179;SDS011;4131;48.810;11.892;2022-11-04T02:57:29;6.57;;;2.00;;
8179;SDS011;4131;48.810;11.892;2022-11-04T03:00:03;3.92;;;2.33;;
8179;SDS011;4131;48.810;11.892;2022-11-04T03:02:33;4.90;;;2.22;;
8179;SDS011;4131;48.810;11.892;2022-11-04T03:05:05;0.88;;;0.88;;
8179;SDS011;4131;48.810;11.892;2022-11-04T03:07:39;3.25;;;1.67;;
8179;SDS011;4131;48.810;11.892;2022-11-04T03:10:09;1.73;;;1.20;;
8179;SDS011;4131;48.810;11.892;2022-11-04T03:12:43;2.55;;;1.10;;
8179;SDS011;4131;48.810;11.892;2022-11-04T03:15:18;2.33;;;1.25;;
8179;SDS011;4131;48.810;11.892;2022-11-04T03:17:50;1.17;;;0.75;;
8179;SDS011;4131;48.810;11.892;2022-11-04T03:20:22;2.42;;;1.77;;
8179;SDS011;4131;48.810;11.892;2022-11-04T03:22:52;1.20;;;1.10;;
8179;SDS011;4131;48.810;11.892;2022-11-04T03:25:25;1.83;;;1.63;;
8179;SDS011;4131;48.810;11.892;2022-11-04T03:28:00;1.25;;;0.88;;
8179;SDS011;4131;48.810;11.892;2022-11-04T03:30:36;2.15;;;1.95;;
8179;SDS011;4131;48.810;11.892;2022-11-04T03:33:10;4.38;;;1.63;;
8179;SDS011;4131;48.810;11.892;2022-11-04T03:35:45;3.35;;;2.05;;
8179;SDS011;4131;48.810;11.892;2022-11-04T03:38:13;1.27;;;0.95;;
8179;SDS011;4131;48.810;11.892;2022-11-04T03:40:41;1.50;;;1.40;;
8179;SDS011;4131;48.810;11.892;2022-11-04T03:43:10;1.48;;;1.05;;
8179;SDS011;4131;48.810;11.892;2022-11-04T03:45:44;0.88;;;0.88;;
8179;SDS011;4131;48.810;11.892;2022-11-04T03:48:12;2.00;;;1.50;;
8179;SDS011;4131;48.810;11.892;2022-11-04T03:50:41;2.25;;;1.45;;
8179;SDS011;4131;48.810;11.892;2022-11-04T03:53:11;1.23;;;1.13;;
8179;SDS011;4131;48.810;11.892;2022-11-04T03:55:44;6.18;;;2.65;;
8179;SDS011;4131;48.810;11.892;2022-11-04T03:58:21;3.60;;;2.88;;
8179;SDS011;4131;48.810;11.892;2022-11-04T04:01:06;5.07;;;2.50;;
8179;SDS011;4131;48.810;11.892;2022-11-04T04:03:47;2.25;;;1.67;;
8179;SDS011;4131;48.810;11.892;2022-11-04T04:06:19;2.42;;;1.88;;
8179;SDS011;4131;48.810;11.892;2022-11-04T04:08:54;1.42;;;1.23;;
8179;SDS011;4131;48.810;11.892;2022-11-04T04:11:27;2.65;;;2.17;;
8179;SDS011;4131;48.810;11.892;2022-11-04T04:14:04;0.60;;;0.30;;
8179;SDS011;4131;48.810;11.892;2022-11-04T04:17:02;3.25;;;1.77;;
8179;SDS011;4131;48.810;11.892;2022-11-04T04:19:32;0.98;;;0.95;;
8179;SDS011;4131;48.810;11.892;2022-11-04T04:22:02;3.45;;;0.80;;
8179;SDS011;4131;48.810;11.892;2022-11-04T04:24:34;3.00;;;1.58;;
8179;SDS011;4131;48.810;11.892;2022-11-04T04:27:22;0.88;;;0.88;;
8179;SDS011;4131;48.810;11.892;2022-11-04T04:30:00;1.08;;;0.70;;
8179;SDS011;4131;48.810;11.892;2022-11-04T04:32:33;2.80;;;1.27;;
8179;SDS011;4131;48.810;11.892;2022-11-04T04:35:05;3.70;;;1.92;;
8179;SDS011;4131;48.810;11.892;2022-11-04T04:37:52;0.88;;;0.60;;
8179;SDS011;4131;48.810;11.892;2022-11-04T04:40:43;0.43;;;0.43;;
8179;SDS011;4131;48.810;11.892;2022-11-04T04:43:34;23.83;;;1.67;;
8179;SDS011;4131;48.810;11.892;2022-11-04T04:46:20;2.40;;;1.08;;
8179;SDS011;4131;48.810;11.892;2022-11-04T04:48:51;0.68;;;0.65;;
8179;SDS011;4131;48.810;11.892;2022-11-04T04:51:19;2.55;;;1.55;;
8179;SDS011;4131;48.810;11.892;2022-11-04T04:53:48;1.05;;;1.05;;
8179;SDS011;4131;48.810;11.892;2022-11-04T04:56:16;2.50;;;1.25;;
8179;SDS011;4131;48.810;11.892;2022-11-04T04:58:45;1.17;;;1.05;;
8179;SDS011;4131;48.810;11.892;2022-11-04T05:01:13;1.08;;;0.98;;
8179;SDS011;4131;48.810;11.892;2022-11-04T05:03:41;1.02;;;0.52;;
8179;SDS011;4131;48.810;11.892;2022-11-04T05:06:12;4.90;;;2.28;;
8179;SDS011;4131;48.810;11.892;2022-11-04T05:08:40;1.52;;;1.27;;
8179;SDS011;4131;48.810;11.892;2022-11-04T05:11:08;1.45;;;1.35;;
8179;SDS011;4131;48.810;11.892;2022-11-04T05:13:36;1.63;;;1.10;;
8179;SDS011;4131;48.810;11.892;2022-11-04T05:16:05;1.83;;;1.60;;
8179;SDS011;4131;48.810;11.892;2022-11-04T05:18:35;0.93;;;0.93;;
8179;SDS011;4131;48.810;11.892;2022-11-04T05:21:03;5.43;;;3.00;;
8179;SDS011;4131;48.810;11.892;2022-11-04T05:23:34;0.75;;;0.40;;
8179;SDS011;4131;48.810;11.892;2022-11-04T05:26:02;1.38;;;1.27;;
8179;SDS011;4131;48.810;11.892;2022-11-04T05:28:30;1.00;;;1.00;;
8179;SDS011;4131;48.810;11.892;2022-11-04T05:31:01;1.08;;;1.05;;
8179;SDS011;4131;48.810;11.892;2022-11-04T05:33:30;1.85;;;0.90;;
8179;SDS011;4131;48.810;11.892;2022-11-04T05:36:04;2.22;;;2.05;;
8179;SDS011;4131;48.810;11.892;2022-11-04T05:38:34;4.18;;;2.22;;
8179;SDS011;4131;48.810;11.892;2022-11-04T05:41:04;0.98;;;0.75;;
8179;SDS011;4131;48.810;11.892;2022-11-04T05:43:33;2.20;;;1.25;;
8179;SDS011;4131;48.810;11.892;2022-11-04T05:46:02;1.45;;;0.95;;
8179;SDS011;4131;48.810;11.892;2022-11-04T05:48:30;1.40;;;0.85;;
8179;SDS011;4131;48.810;11.892;2022-11-04T05:51:05;0.80;;;0.80;;
8179;SDS011;4131;48.810;11.892;2022-11-04T05:53:35;0.85;;;0.43;;
8179;SDS011;4131;48.810;11.892;2022-11-04T05:56:03;0.13;;;0.13;;
8179;SDS011;4131;48.810;11.892;2022-11-04T05:58:31;0.25;;;0.25;;
8179;SDS011;4131;48.810;11.892;2022-11-04T06:01:12;0.05;;;0.05;;
8179;SDS011;4131;48.810;11.892;2022-11-04T06:03:50;2.22;;;0.40;;
8179;SDS011;4131;48.810;11.892;2022-11-04T06:06:18;1.05;;;0.70;;
8179;SDS011;4131;48.810;11.892;2022-11-04T06:08:48;1.05;;;0.95;;
8179;SDS011;4131;48.810;11.892;2022-11-04T06:11:17;1.88;;;0.65;;
8179;SDS011;4131;48.810;11.892;2022-11-04T06:13:46;1.17;;;0.88;;
8179;SDS011;4131;48.810;11.892;2022-11-04T06:16:15;0.00;;;0.00;;
8179;SDS011;4131;48.810;11.892;2022-11-04T06:18:43;0.35;;;0.35;;
8179;SDS011;4131;48.810;11.892;2022-11-04T06:21:20;0.38;;;0.15;;
8179;SDS011;4131;48.810;11.892;2022-11-04T06:23:52;0.43;;;0.40;;
8179;SDS011;4131;48.810;11.892;2022-11-04T06:26:22;1.65;;;0.70;;
8179;SDS011;4131;48.810;11.892;2022-11-04T06:28:53;0.13;;;0.13;;
8179;SDS011;4131;48.810;11.892;2022-11-04T06:31:21;0.38;;;0.38;;
8179;SDS011;4131;48.810;11.892;2022-11-04T06:33:50;0.20;;;0.20;;
8179;SDS011;4131;48.810;11.892;2022-11-04T06:36:18;2.30;;;0.50;;
8179;SDS011;4131;48.810;11.892;2022-11-04T06:38:46;0.22;;;0.22;;
8179;SDS011;4131;48.810;11.892;2022-11-04T06:41:15;0.17;;;0.17;;
8179;SDS011;4131;48.810;11.892;2022-11-04T06:43:44;0.65;;;0.43;;
8179;SDS011;4131;48.810;11.892;2022-11-04T06:46:25;1.02;;;0.60;;
8179;SDS011;4131;48.810;11.892;2022-11-04T06:48:54;0.68;;;0.68;;
8179;SDS011;4131;48.810;11.892;2022-11-04T06:51:23;17.65;;;1.25;;
8179;SDS011;4131;48.810;11.892;2022-11-04T06:53:52;0.68;;;0.40;;
8179;SDS011;4131;48.810;11.892;2022-11-04T06:56:21;0.35;;;0.35;;
8179;SDS011;4131;48.810;11.892;2022-11-04T06:58:50;2.80;;;0.45;;
8179;SDS011;4131;48.810;11.892;2022-11-04T07:01:20;0.10;;;0.10;;
8179;SDS011;4131;48.810;11.892;2022-11-04T07:03:50;1.40;;;1.30;;
8179;SDS011;4131;48.810;11.892;2022-11-04T07:06:19;0.73;;;0.45;;
8179;SDS011;4131;48.810;11.892;2022-11-04T07:08:48;0.47;;;0.47;;
8179;SDS011;4131;48.810;11.892;2022-11-04T07:11:18;0.30;;;0.30;;
8179;SDS011;4131;48.810;11.892;2022-11-04T07:13:50;0.80;;;0.30;;
8179;SDS011;4131;48.810;11.892;2022-11-04T07:16:18;0.45;;;0.45;;
8179;SDS011;4131;48.810;11.892;2022-11-04T07:18:46;1.33;;;0.52;;
8179;SDS011;4131;48.810;11.892;2022-11-04T07:21:15;0.10;;;0.00;;
8179;SDS011;4131;48.810;11.892;2022-11-04T07:23:44;0.15;;;0.15;;
8179;SDS011;4131;48.810;11.892;2022-11-04T07:26:12;0.60;;;0.47;;
8179;SDS011;4131;48.810;11.892;2022-11-04T07:28:41;0.20;;;0.20;;
8179;SDS011;4131;48.810;11.892;2022-11-04T07:31:11;1.08;;;0.85;;
8179;SDS011;4131;48.810;11.892;2022-11-04T07:33:40;0.03;;;0.03;;
8179;SDS011;4131;48.810;11.892;2022-11-04T07:36:11;0.80;;;0.30;;
8179;SDS011;4131;48.810;11.892;2022-11-04T07:38:39;0.22;;;0.22;;
8179;SDS011;4131;48.810;11.892;2022-11-04T07:41:09;0.47;;;0.38;;
8179;SDS011;4131;48.810;11.892;2022-11-04T07:43:38;4.03;;;0.47;;
8179;SDS011;4131;48.810;11.892;2022-11-04T07:46:07;0.45;;;0.15;;
8179;SDS011;4131;48.810;11.892;2022-11-04T07:48:38;0.77;;;0.68;;
8179;SDS011;4131;48.810;11.892;2022-11-04T07:51:07;0.10;;;0.10;;
8179;SDS011;4131;48.810;11.892;2022-11-04T07:53:38;0.35;;;0.35;;
8179;SDS011;4131;48.810;11.892;2022-11-04T07:56:07;0.40;;;0.40;;
8179;SDS011;4131;48.810;11.892;2022-11-04T07:58:38;0.40;;;0.40;;
8179;SDS011;4131;48.810;11.892;2022-11-04T08:01:07;0.22;;;0.22;;
8179;SDS011;4131;48.810;11.892;2022-11-04T08:03:36;0.47;;;0.35;;
8179;SDS011;4131;48.810;11.892;2022-11-04T08:06:07;0.90;;;0.43;;
8179;SDS011;4131;48.810;11.892;2022-11-04T08:08:36;0.10;;;0.10;;
8179;SDS011;4131;48.810;11.892;2022-11-04T08:11:05;0.22;;;0.22;;
8179;SDS011;4131;48.810;11.892;2022-11-04T08:13:42;0.38;;;0.38;;
8179;SDS011;4131;48.810;11.892;2022-11-04T08:16:12;0.38;;;0.38;;
8179;SDS011;4131;48.810;11.892;2022-11-04T08:18:43;1.05;;;0.45;;
8179;SDS011;4131;48.810;11.892;2022-11-04T08:21:11;0.32;;;0.03;;
8179;SDS011;4131;48.810;11.892;2022-11-04T08:23:39;0.00;;;0.00;;
8179;SDS011;4131;48.810;11.892;2022-11-04T08:26:08;0.35;;;0.30;;
8179;SDS011;4131;48.810;11.892;2022-11-04T08:28:37;0.35;;;0.30;;
8179;SDS011;4131;48.810;11.892;2022-11-04T08:31:08;0.57;;;0.57;;
8179;SDS011;4131;48.810;11.892;2022-11-04T08:33:38;0.00;;;0.00;;
8179;SDS011;4131;48.810;11.892;2022-11-04T08:36:09;0.20;;;0.20;;
8179;SDS011;4131;48.810;11.892;2022-11-04T08:38:39;2.83;;;0.70;;
8179;SDS011;4131;48.810;11.892;2022-11-04T08:41:08;0.00;;;0.00;;
8179;SDS011;4131;48.810;11.892;2022-11-04T08:43:37;0.05;;;0.05;;
8179;SDS011;4131;48.810;11.892;2022-11-04T08:46:06;0.20;;;0.13;;
8179;SDS011;4131;48.810;11.892;2022-11-04T08:48:36;0.03;;;0.03;;
8179;SDS011;4131;48.810;11.892;2022-11-04T08:51:06;0.10;;;0.10;;
8179;SDS011;4131;48.810;11.892;2022-11-04T08:53:42;0.20;;;0.10;;
8179;SDS011;4131;48.810;11.892;2022-11-04T08:56:11;0.45;;;0.45;;
8179;SDS011;4131;48.810;11.892;2022-11-04T08:58:40;0.10;;;0.10;;
8179;SDS011;4131;48.810;11.892;2022-11-04T09:01:09;0.45;;;0.40;;
8179;SDS011;4131;48.810;11.892;2022-11-04T09:03:38;0.30;;;0.30;;
8179;SDS011;4131;48.810;11.892;2022-11-04T09:06:09;0.20;;;0.20;;
8179;SDS011;4131;48.810;11.892;2022-11-04T09:08:40;0.65;;;0.20;;
8179;SDS011;4131;48.810;11.892;2022-11-04T09:11:09;0.05;;;0.05;;
8179;SDS011;4131;48.810;11.892;2022-11-04T09:13:39;0.10;;;0.05;;
8179;SDS011;4131;48.810;11.892;2022-11-04T09:16:07;0.00;;;0.00;;
8179;SDS011;4131;48.810;11.892;2022-11-04T09:18:38;0.00;;;0.00;;
8179;SDS011;4131;48.810;11.892;2022-11-04T09:21:07;0.05;;;0.05;;
8179;SDS011;4131;48.810;11.892;2022-11-04T09:23:36;0.15;;;0.15;;
8179;SDS011;4131;48.810;11.892;2022-11-04T09:26:07;0.00;;;0.00;;
8179;SDS011;4131;48.810;11.892;2022-11-04T09:28:38;0.15;;;0.15;;
8179;SDS011;4131;48.810;11.892;2022-11-04T09:31:07;0.50;;;0.20;;
8179;SDS011;4131;48.810;11.892;2022-11-04T09:33:37;0.00;;;0.00;;
8179;SDS011;4131;48.810;11.892;2022-11-04T09:36:06;0.00;;;0.00;;
8179;SDS011;4131;48.810;11.892;2022-11-04T09:38:35;0.10;;;0.10;;
8179;SDS011;4131;48.810;11.892;2022-11-04T09:41:10;0.28;;;0.28;;
8179;SDS011;4131;48.810;11.892;2022-11-04T09:44:11;0.10;;;0.10;;
8179;SDS011;4131;48.810;11.892;2022-11-04T09:46:47;0.00;;;0.00;;
8179;SDS011;4131;48.810;11.892;2022-11-04T09:49:17;0.57;;;0.57;;
8179;SDS011;4131;48.810;11.892;2022-11-04T09:51:46;0.00;;;0.00;;
8179;SDS011;4131;48.810;11.892;2022-11-04T09:54:21;0.45;;;0.30;;
8179;SDS011;4131;48.810;11.892;2022-11-04T09:56:53;0.10;;;0.10;;
8179;SDS011;4131;48.810;11.892;2022-11-04T09:59:24;0.00;;;0.00;;
8179;SDS011;4131;48.810;11.892;2022-11-04T10:02:02;0.22;;;0.22;;
8179;SDS011;4131;48.810;11.892;2022-11-04T10:04:50;0.45;;;0.38;;
8179;SDS011;4131;48.810;11.892;2022-11-04T10:07:32;0.82;;;0.30;;
8179;SDS011;4131;48.810;11.892;2022-11-04T10:10:13;0.15;;;0.15;;
8179;SDS011;4131;48.810;11.892;2022-11-04T10:12:58;0.73;;;0.45;;
8179;SDS011;4131;48.810;11.892;2022-11-04T10:15:42;0.13;;;0.13;;
8179;SDS011;4131;48.810;11.892;2022-11-04T10:18:33;0.20;;;0.17;;
8179;SDS011;4131;48.810;11.892;2022-11-04T10:21:15;0.22;;;0.22;;
8179;SDS011;4131;48.810;11.892;2022-11-04T10:23:56;0.38;;;0.35;;
8179;SDS011;4131;48.810;11.892;2022-11-04T10:26:44;0.00;;;0.00;;
8179;SDS011;4131;48.810;11.892;2022-11-04T10:29:18;0.38;;;0.10;;
8179;SDS011;4131;48.810;11.892;2022-11-04T10:31:51;5.47;;;0.22;;
8179;SDS011;4131;48.810;11.892;2022-11-04T10:34:25;0.10;;;0.10;;
8179;SDS011;4131;48.810;11.892;2022-11-04T10:36:57;0.10;;;0.10;;
8179;SDS011;4131;48.810;11.892;2022-11-04T10:39:26;0.10;;;0.10;;
8179;SDS011;4131;48.810;11.892;2022-11-04T10:41:57;0.32;;;0.20;;
8179;SDS011;4131;48.810;11.892;2022-11-04T10:44:26;0.10;;;0.10;;
8179;SDS011;4131;48.810;11.892;2022-11-04T10:47:03;4.05;;;2.92;;
8179;SDS011;4131;48.810;11.892;2022-11-04T10:49:51;0.80;;;0.75;;
8179;SDS011;4131;48.810;11.892;2022-11-04T10:52:51;0.22;;;0.22;;
8179;SDS011;4131;48.810;11.892;2022-11-04T10:55:27;1.15;;;0.40;;
8179;SDS011;4131;48.810;11.892;2022-11-04T10:58:02;0.17;;;0.03;;
8179;SDS011;4131;48.810;11.892;2022-11-04T11:00:38;0.00;;;0.00;;
8179;SDS011;4131;48.810;11.892;2022-11-04T11:03:20;0.05;;;0.05;;
8179;SDS011;4131;48.810;11.892;2022-11-04T11:05:50;0.30;;;0.30;;
8179;SDS011;4131;48.810;11.892;2022-11-04T11:08:26;0.25;;;0.25;;
8179;SDS011;4131;48.810;11.892;2022-11-04T11:10:57;0.00;;;0.00;;
8179;SDS011;4131;48.810;11.892;2022-11-04T11:13:26;0.05;;;0.05;;
8179;SDS011;4131;48.810;11.892;2022-11-04T11:16:06;0.13;;;0.13;;
8179;SDS011;4131;48.810;11.892;2022-11-04T11:18:37;0.32;;;0.32;;
8179;SDS011;4131;48.810;11.892;2022-11-04T11:21:08;0.00;;;0.00;;
8179;SDS011;4131;48.810;11.892;2022-11-04T11:23:40;1.45;;;0.70;;
8179;SDS011;4131;48.810;11.892;2022-11-04T11:26:11;2.55;;;0.30;;
8179;SDS011;4131;48.810;11.892;2022-11-04T11:28:40;0.98;;;0.98;;
8179;SDS011;4131;48.810;11.892;2022-11-04T11:31:25;0.08;;;0.08;;
8179;SDS011;4131;48.810;11.892;2022-11-04T11:34:03;0.00;;;0.00;;
8179;SDS011;4131;48.810;11.892;2022-11-04T11:36:32;0.38;;;0.38;;
8179;SDS011;4131;48.810;11.892;2022-11-04T11:39:05;0.17;;;0.17;;
8179;SDS011;4131;48.810;11.892;2022-11-04T11:41:48;0.22;;;0.22;;
8179;SDS011;4131;48.810;11.892;2022-11-04T11:44:22;0.10;;;0.10;;
8179;SDS011;4131;48.810;11.892;2022-11-04T11:46:59;0.00;;;0.00;;
8179;SDS011;4131;48.810;11.892;2022-11-04T11:49:29;4.18;;;0.35;;
8179;SDS011;4131;48.810;11.892;2022-11-04T11:52:15;0.10;;;0.10;;
8179;SDS011;4131;48.810;11.892;2022-11-04T11:55:00;0.00;;;0.00;;
8179;SDS011;4131;48.810;11.892;2022-11-04T11:57:36;0.00;;;0.00;;
8179;SDS011;4131;48.810;11.892;2022-11-04T12:00:31;0.28;;;0.28;;
8179;SDS011;4131;48.810;11.892;2022-11-04T12:03:10;0.00;;;0.00;;
8179;SDS011;4131;48.810;11.892;2022-11-04T12:05:44;0.10;;;0.10;;
8179;SDS011;4131;48.810;11.892;2022-11-04T12:08:44;0.15;;;0.05;;
8179;SDS011;4131;48.810;11.892;2022-11-04T12:11:43;0.00;;;0.00;;
8179;SDS011;4131;48.810;11.892;2022-11-04T12:14:33;0.00;;;0.00;;
8179;SDS011;4131;48.810;11.892;2022-11-04T12:17:17;0.10;;;0.10;;
8179;SDS011;4131;48.810;11.892;2022-11-04T12:19:57;0.00;;;0.00;;
8179;SDS011;4131;48.810;11.892;2022-11-04T12:22:38;0.00;;;0.00;;
8179;SDS011;4131;48.810;11.892;2022-11-04T12:25:16;0.00;;;0.00;;
8179;SDS011;4131;48.810;11.892;2022-11-04T12:27:51;0.13;;;0.10;;
8179;SDS011;4131;48.810;11.892;2022-11-04T12:30:25;0.10;;;0.10;;
8179;SDS011;4131;48.810;11.892;2022-11-04T12:33:07;0.55;;;0.20;;
8179;SDS011;4131;48.810;11.892;2022-11-04T12:35:55;0.00;;;0.00;;
8179;SDS011;4131;48.810;11.892;2022-11-04T12:38:35;0.00;;;0.00;;
8179;SDS011;4131;48.810;11.892;2022-11-04T12:41:16;0.00;;;0.00;;
8179;SDS011;4131;48.810;11.892;2022-11-04T12:44:12;0.98;;;0.08;;
8179;SDS011;4131;48.810;11.892;2022-11-04T12:46:51;0.35;;;0.25;;
8179;SDS011;4131;48.810;11.892;2022-11-04T12:49:30;0.00;;;0.00;;
8179;SDS011;4131;48.810;11.892;2022-11-04T12:52:21;2.42;;;0.38;;
8179;SDS011;4131;48.810;11.892;2022-11-04T12:55:02;2.35;;;0.30;;
8179;SDS011;4131;48.810;11.892;2022-11-04T12:57:43;0.10;;;0.10;;
8179;SDS011;4131;48.810;11.892;2022-11-04T13:00:17;0.10;;;0.10;;
8179;SDS011;4131;48.810;11.892;2022-11-04T13:02:50;0.10;;;0.10;;
8179;SDS011;4131;48.810;11.892;2022-11-04T13:05:29;0.00;;;0.00;;
8179;SDS011;4131;48.810;11.892;2022-11-04T13:08:08;1.55;;;0.22;;
8179;SDS011;4131;48.810;11.892;2022-11-04T13:10:42;0.10;;;0.10;;
8179;SDS011;4131;48.810;11.892;2022-11-04T13:13:16;0.73;;;0.32;;
8179;SDS011;4131;48.810;11.892;2022-11-04T13:15:48;0.30;;;0.30;;
8179;SDS011;4131;48.810;11.892;2022-11-04T13:18:20;0.10;;;0.10;;
8179;SDS011;4131;48.810;11.892;2022-11-04T13:20:54;0.00;;;0.00;;
8179;SDS011;4131;48.810;11.892;2022-11-04T13:23:31;0.40;;;0.40;;
8179;SDS011;4131;48.810;11.892;2022-11-04T13:26:05;1.02;;;0.45;;
8179;SDS011;4131;48.810;11.892;2022-11-04T13:28:37;0.00;;;0.00;;
8179;SDS011;4131;48.810;11.892;2022-11-04T13:31:08;0.65;;;0.17;;
8179;SDS011;4131;48.810;11.892;2022-11-04T13:33:43;0.85;;;0.30;;
8179;SDS011;4131;48.810;11.892;2022-11-04T13:36:21;0.25;;;0.25;;
8179;SDS011;4131;48.810;11.892;2022-11-04T13:38:58;0.00;;;0.00;;
8179;SDS011;4131;48.810;11.892;2022-11-04T13:41:39;0.00;;;0.00;;
8179;SDS011;4131;48.810;11.892;2022-11-04T13:44:33;0.38;;;0.38;;
8179;SDS011;4131;48.810;11.892;2022-11-04T13:47:04;0.00;;;0.00;;
8179;SDS011;4131;48.810;11.892;2022-11-04T13:49:48;0.00;;;0.00;;
8179;SDS011;4131;48.810;11.892;2022-11-04T13:52:18;0.00;;;0.00;;
8179;SDS011;4131;48.810;11.892;2022-11-04T13:54:52;0.00;;;0.00;;
8179;SDS011;4131;48.810;11.892;2022-11-04T13:57:24;0.10;;;0.10;;
8179;SDS011;4131;48.810;11.892;2022-11-04T14:00:16;0.00;;;0.00;;
8179;SDS011;4131;48.810;11.892;2022-11-04T14:02:48;0.43;;;0.20;;
8179;SDS011;4131;48.810;11.892;2022-11-04T14:08:32;0.08;;;0.08;;
8179;SDS011;4131;48.810;11.892;2022-11-04T14:11:11;1.35;;;0.40;;
8179;SDS011;4131;48.810;11.892;2022-11-04T14:16:42;0.00;;;0.00;;
8179;SDS011;4131;48.810;11.892;2022-11-04T14:22:29;0.10;;;0.10;;
8179;SDS011;4131;48.810;11.892;2022-11-04T14:25:00;0.50;;;0.50;;
8179;SDS011;4131;48.810;11.892;2022-11-04T14:27:34;0.15;;;0.15;;
8179;SDS011;4131;48.810;11.892;2022-11-04T14:30:06;0.08;;;0.05;;
8179;SDS011;4131;48.810;11.892;2022-11-04T14:32:58;0.00;;;0.00;;
8179;SDS011;4131;48.810;11.892;2022-11-04T14:38:03;0.20;;;0.20;;
8179;SDS011;4131;48.810;11.892;2022-11-04T14:40:47;0.43;;;0.43;;
8179;SDS011;4131;48.810;11.892;2022-11-04T14:43:29;1.13;;;0.20;;
8179;SDS011;4131;48.810;11.892;2022-11-04T14:46:01;1.30;;;0.95;;
8179;SDS011;4131;48.810;11.892;2022-11-04T14:48:29;7.55;;;3.67;;
8179;SDS011;4131;48.810;11.892;2022-11-04T14:50:58;0.10;;;0.10;;
8179;SDS011;4131;48.810;11.892;2022-11-04T14:53:28;1.95;;;1.05;;
8179;SDS011;4131;48.810;11.892;2022-11-04T14:56:02;0.30;;;0.30;;
8179;SDS011;4131;48.810;11.892;2022-11-04T14:58:36;0.15;;;0.15;;
8179;SDS011;4131;48.810;11.892;2022-11-04T15:01:05;0.10;;;0.10;;
8179;SDS011;4131;48.810;11.892;2022-11-04T15:03:37;2.70;;;0.45;;
8179;SDS011;4131;48.810;11.892;2022-11-04T15:06:27;1.02;;;0.57;;
8179;SDS011;4131;48.810;11.892;2022-11-04T15:09:18;0.57;;;0.10;;
8179;SDS011;4131;48.810;11.892;2022-11-04T15:11:48;0.40;;;0.40;;
8179;SDS011;4131;48.810;11.892;2022-11-04T15:14:36;0.20;;;0.20;;
8179;SDS011;4131;48.810;11.892;2022-11-04T15:17:04;0.47;;;0.28;;
8179;SDS011;4131;48.810;11.892;2022-11-04T15:19:34;0.63;;;0.30;;
8179;SDS011;4131;48.810;11.892;2022-11-04T15:22:03;1.13;;;0.10;;
8179;SDS011;4131;48.810;11.892;2022-11-04T15:24:33;3.20;;;0.45;;
8179;SDS011;4131;48.810;11.892;2022-11-04T15:27:02;0.30;;;0.22;;
8179;SDS011;4131;48.810;11.892;2022-11-04T15:29:32;0.10;;;0.10;;
8179;SDS011;4131;48.810;11.892;2022-11-04T15:32:03;0.68;;;0.65;;
8179;SDS011;4131;48.810;11.892;2022-11-04T15:34:32;1.27;;;0.35;;
8179;SDS011;4131;48.810;11.892;2022-11-04T15:37:02;0.35;;;0.20;;
8179;SDS011;4131;48.810;11.892;2022-11-04T15:39:33;0.20;;;0.20;;
8179;SDS011;4131;48.810;11.892;2022-11-04T15:42:05;0.00;;;0.00;;
8179;SDS011;4131;48.810;11.892;2022-11-04T15:44:55;0.38;;;0.38;;
8179;SDS011;4131;48.810;11.892;2022-11-04T15:47:27;0.70;;;0.52;;
8179;SDS011;4131;48.810;11.892;2022-11-04T15:50:00;0.28;;;0.22;;
8179;SDS011;4131;48.810;11.892;2022-11-04T15:52:32;0.15;;;0.15;;
8179;SDS011;4131;48.810;11.892;2022-11-04T15:55:00;0.32;;;0.32;;
8179;SDS011;4131;48.810;11.892;2022-11-04T15:57:32;0.57;;;0.47;;